createdAt,value
2022-08-17T00:00:42.878Z,100023.41
2022-08-17T00:03:23.983Z,100017.46
2022-08-17T00:05:57.767Z,100015.63
2022-08-17T00:08:31.303Z,100011.92
2022-08-17T00:10:59.825Z,100012.77
2022-08-17T00:13:34.389Z,100003.02
2022-08-17T00:16:09.147Z,100005.99
2022-08-17T00:19:06.625Z,100006.35
2022-08-17T00:21:26.300Z,100005.40
2022-08-17T00:24:15.794Z,100008.69
2022-08-17T00:26:44.982Z,100008.09
2022-08-17T00:29:17.901Z,100009.73
2022-08-17T00:31:49.599Z,100004.23
2022-08-17T00:34:18.138Z,100004.97
2022-08-17T00:36:46.090Z,100008.47
2022-08-17T00:39:13.950Z,100011.79
2022-08-17T00:41:42.752Z,100017.64
2022-08-17T00:44:12.625Z,100024.02
2022-08-17T00:46:43.272Z,100023.98
2022-08-17T00:49:13.580Z,100022.45
2022-08-17T00:51:51.353Z,100016.35
2022-08-17T00:54:25.381Z,100017.36
2022-08-17T00:57:17.623Z,100014.70
2022-08-17T01:00:02.368Z,100014.95
2022-08-17T01:02:42.605Z,99998.02
2022-08-17T01:05:25.564Z,100017.69
2022-08-17T01:07:54.360Z,100019.11
2022-08-17T01:10:58.798Z,100016.91
2022-08-17T01:13:21.224Z,100022.99
2022-08-17T01:15:59.303Z,100021.98
2022-08-17T01:18:28.591Z,100022.33
2022-08-17T01:20:58.775Z,100016.65
2022-08-17T01:23:28.947Z,100015.59
2022-08-17T01:26:02.066Z,100016.21
2022-08-17T01:28:40.701Z,100018.70
2022-08-17T01:31:24.952Z,100019.49
2022-08-17T01:33:53.589Z,100020.50
2022-08-17T01:36:21.963Z,100022.05
2022-08-17T01:38:50.121Z,100017.11
2022-08-17T01:41:21.564Z,100015.73
2022-08-17T01:43:55.244Z,100012.77
2022-08-17T01:46:29.184Z,100019.08
2022-08-17T01:48:58.153Z,100021.08
2022-08-17T01:51:32.863Z,100020.01
2022-08-17T01:54:05.872Z,100024.17
2022-08-17T01:56:36.937Z,99989.69
2022-08-17T01:59:05.312Z,100021.83
2022-08-17T02:01:34.713Z,100023.54
2022-08-17T02:04:04.947Z,100022.29
2022-08-17T02:06:52.632Z,100019.43
2022-08-17T02:09:25.956Z,100016.86
2022-08-17T02:11:56.433Z,100024.87
2022-08-17T02:14:25.154Z,100025.32
2022-08-17T02:16:53.898Z,100028.08
2022-08-17T02:19:22.868Z,100025.21
2022-08-17T02:21:53.526Z,100022.50
2022-08-17T02:24:58.685Z,100025.15
2022-08-17T02:27:13.922Z,100026.54
2022-08-17T02:29:41.848Z,100026.69
2022-08-17T02:32:27.333Z,100027.16
2022-08-17T02:34:57.593Z,100023.23
2022-08-17T02:37:27.092Z,100029.95
2022-08-17T02:39:57.384Z,100029.52
2022-08-17T02:42:34.112Z,100034.75
2022-08-17T02:45:04.522Z,100037.05
2022-08-17T02:47:32.999Z,100038.93
2022-08-17T02:50:00.895Z,100045.73
2022-08-17T02:52:43.714Z,100047.24
2022-08-17T02:55:19.125Z,100050.01
2022-08-17T02:57:47.196Z,100043.34
2022-08-17T03:00:29.007Z,100041.70
2022-08-17T03:02:57.970Z,100043.17
2022-08-17T03:05:28.308Z,100040.52
2022-08-17T03:07:56.399Z,100041.81
2022-08-17T03:10:25.670Z,100042.08
2022-08-17T03:12:54.417Z,100042.48
2022-08-17T03:15:28.401Z,100040.34
2022-08-17T03:17:57.131Z,100042.73
2022-08-17T03:20:28.759Z,100045.95
2022-08-17T03:23:01.991Z,100045.98
2022-08-17T03:25:34.534Z,100044.06
2022-08-17T03:28:04.111Z,100045.23
2022-08-17T03:30:32.858Z,100047.94
2022-08-17T03:33:03.333Z,100045.02
2022-08-17T03:35:33.582Z,100052.32
2022-08-17T03:38:01.563Z,100059.24
2022-08-17T03:40:55.516Z,100056.88
2022-08-17T03:43:20.841Z,100062.51
2022-08-17T03:46:10.083Z,100069.90
2022-08-17T03:49:13.998Z,100074.83
2022-08-17T03:52:01.141Z,100078.08
2022-08-17T03:54:47.905Z,100072.45
2022-08-17T03:57:16.718Z,100074.91
2022-08-17T03:59:45.358Z,100077.90
2022-08-17T04:02:18.760Z,100076.13
2022-08-17T04:04:50.974Z,100074.17
2022-08-17T04:07:21.698Z,100055.17
2022-08-17T04:09:49.806Z,100081.28
2022-08-17T04:12:23.664Z,100084.96
2022-08-17T04:14:54.695Z,100085.85
2022-08-17T04:17:30.924Z,100087.55
2022-08-17T04:19:58.838Z,100082.96
2022-08-17T04:22:31.906Z,100084.20
2022-08-17T04:25:16.825Z,100074.11
2022-08-17T04:27:44.649Z,100084.52
2022-08-17T04:30:13.490Z,100082.89
2022-08-17T04:33:05.527Z,100082.14
2022-08-17T04:35:38.780Z,100080.15
2022-08-17T04:38:12.306Z,100090.42
2022-08-17T04:41:13.311Z,100100.29
2022-08-17T04:43:42.998Z,100101.23
2022-08-17T04:46:14.693Z,100102.73
2022-08-17T04:48:46.198Z,100104.16
2022-08-17T04:51:20.862Z,100102.30
2022-08-17T04:53:54.097Z,100102.71
2022-08-17T04:56:26.049Z,100104.49
2022-08-17T04:59:00.265Z,100090.21
2022-08-17T05:01:31.553Z,100097.77
2022-08-17T05:04:32.196Z,100101.52
2022-08-17T05:06:52.482Z,100098.46
2022-08-17T05:09:23.557Z,100097.76
2022-08-17T05:11:56.157Z,100091.88
2022-08-17T05:14:33.534Z,100092.77
2022-08-17T05:17:07.140Z,100078.67
2022-08-17T05:19:39.578Z,100092.58
2022-08-17T05:22:08.051Z,100093.15
2022-08-17T05:24:40.795Z,100089.77
2022-08-17T05:27:17.829Z,100089.93
2022-08-17T05:29:46.841Z,100096.86
2022-08-17T05:32:37.920Z,100098.98
2022-08-17T05:35:05.354Z,100097.99
2022-08-17T05:37:33.579Z,100096.27
2022-08-17T05:40:01.581Z,100100.14
2022-08-17T05:42:29.411Z,100097.31
2022-08-17T05:44:58.862Z,100095.02
2022-08-17T05:47:27.388Z,100091.33
2022-08-17T05:49:55.725Z,100092.61
2022-08-17T05:52:42.214Z,100080.95
2022-08-17T05:55:28.642Z,100095.94
2022-08-17T05:58:19.831Z,100097.94
2022-08-17T06:01:00.988Z,100102.65
2022-08-17T06:03:35.096Z,100105.00
2022-08-17T06:06:14.514Z,100108.75
2022-08-17T06:08:56.732Z,100106.29
2022-08-17T06:11:31.532Z,100105.73
2022-08-17T06:14:20.160Z,100103.72
2022-08-17T06:16:54.553Z,100111.50
2022-08-17T06:19:37.663Z,100113.34
2022-08-17T06:22:07.624Z,100121.99
2022-08-17T06:24:38.659Z,100126.29
2022-08-17T06:27:13.645Z,100126.38
2022-08-17T06:29:45.910Z,100125.60
2022-08-17T06:32:14.620Z,100125.34
2022-08-17T06:34:44.475Z,100118.71
2022-08-17T06:37:42.293Z,100118.81
2022-08-17T06:40:29.047Z,100123.98
2022-08-17T06:43:23.524Z,100121.29
2022-08-17T06:45:59.260Z,100119.71
2022-08-17T06:48:52.556Z,100116.17
2022-08-17T06:51:33.471Z,100116.92
2022-08-17T06:54:25.592Z,100118.91
2022-08-17T06:57:15.114Z,100123.85
2022-08-17T06:59:56.291Z,100122.56
2022-08-17T07:02:52.275Z,100119.58
2022-08-17T07:05:39.784Z,100104.16
2022-08-17T07:08:11.866Z,100120.66
2022-08-17T07:10:47.312Z,100123.54
2022-08-17T07:13:25.669Z,100127.07
2022-08-17T07:16:01.104Z,100128.15
2022-08-17T07:18:33.248Z,100123.04
2022-08-17T07:21:26.728Z,100122.04
2022-08-17T07:24:26.365Z,100120.61
2022-08-17T07:27:21.458Z,100125.14
2022-08-17T07:29:57.153Z,100127.46
2022-08-17T07:32:46.190Z,100127.98
2022-08-17T07:35:22.180Z,100124.02
2022-08-17T07:38:24.941Z,100117.88
2022-08-17T07:40:58.232Z,100116.48
2022-08-17T07:43:39.384Z,100117.41
2022-08-17T07:46:44.100Z,100115.98
2022-08-17T07:49:32.863Z,100116.28
2022-08-17T07:52:23.912Z,100114.52
2022-08-17T07:54:58.120Z,100117.67
2022-08-17T07:57:33.939Z,100118.65
2022-08-17T08:00:02.015Z,100122.67
2022-08-17T08:02:44.039Z,100123.43
2022-08-17T08:05:49.178Z,100126.50
2022-08-17T08:08:26.855Z,100126.40
2022-08-17T08:11:34.912Z,100121.05
2022-08-17T08:14:28.712Z,100114.86
2022-08-17T08:17:09.227Z,100114.29
2022-08-17T08:19:37.411Z,100112.83
2022-08-17T08:22:11.710Z,100115.13
2022-08-17T08:24:45.500Z,100120.98
2022-08-17T08:27:50.273Z,100122.39
2022-08-17T08:30:21.534Z,100121.71
2022-08-17T08:32:57.237Z,100121.02
2022-08-17T08:35:44.565Z,100110.08
2022-08-17T08:38:37.146Z,100118.52
2022-08-17T08:41:46.130Z,100119.70
2022-08-17T08:45:00.232Z,100121.95
2022-08-17T08:47:36.820Z,100118.22
2022-08-17T08:50:37.554Z,100120.66
2022-08-17T08:53:16.517Z,100120.94
2022-08-17T08:56:03.417Z,100125.10
2022-08-17T08:59:04.315Z,100126.84
2022-08-17T09:01:56.460Z,100128.05
2022-08-17T09:05:12.493Z,100127.40
2022-08-17T09:07:51.441Z,100126.30
2022-08-17T09:10:30.860Z,100124.63
2022-08-17T09:13:14.159Z,100127.41
2022-08-17T09:15:57.392Z,100125.48
2022-08-17T09:19:00.285Z,100124.81
2022-08-17T09:21:33.955Z,100126.91
2022-08-17T09:24:13.032Z,100115.64
2022-08-17T09:27:02.479Z,100129.88
2022-08-17T09:29:37.604Z,100126.30
2022-08-17T09:32:32.752Z,100128.11
2022-08-17T09:35:06.323Z,100132.41
2022-08-17T09:37:50.765Z,100136.06
2022-08-17T09:40:38.396Z,100136.77
2022-08-17T09:43:27.985Z,100094.04
2022-08-17T09:46:02.519Z,100134.15
2022-08-17T09:48:47.186Z,100127.05
2022-08-17T09:51:40.302Z,100130.20
2022-08-17T09:54:44.845Z,100131.42
2022-08-17T09:57:31.729Z,100132.14
2022-08-17T10:00:18.967Z,100135.99
2022-08-17T10:03:09.786Z,100136.77
2022-08-17T10:06:00.896Z,100140.14
2022-08-17T10:08:32.311Z,100139.21
2022-08-17T10:11:20.257Z,100128.39
2022-08-17T10:14:02.816Z,100140.19
2022-08-17T10:17:01.598Z,100139.16
2022-08-17T10:19:38.434Z,100143.77
2022-08-17T10:22:53.048Z,100140.81
2022-08-17T10:25:54.567Z,100143.31
2022-08-17T10:28:29.807Z,100139.30
2022-08-17T10:31:33.266Z,100136.15
2022-08-17T10:34:12.641Z,100138.46
2022-08-17T10:36:47.589Z,100140.36
2022-08-17T10:39:20.829Z,100139.96
2022-08-17T10:41:53.725Z,100135.79
2022-08-17T10:45:06.990Z,100134.02
2022-08-17T10:48:05.156Z,100130.45
2022-08-17T10:50:58.273Z,100133.80
2022-08-17T10:53:32.221Z,100134.70
2022-08-17T10:56:12.270Z,100133.45
2022-08-17T10:58:49.635Z,100134.92
2022-08-17T11:01:18.444Z,100132.20
2022-08-17T11:03:58.142Z,100132.43
2022-08-17T11:06:51.240Z,100132.34
2022-08-17T11:09:42.328Z,100129.58
2022-08-17T11:12:37.790Z,100135.60
2022-08-17T11:15:11.617Z,100134.36
2022-08-17T11:18:05.278Z,100134.48
2022-08-17T11:21:08.785Z,100126.77
2022-08-17T11:23:51.658Z,100114.16
2022-08-17T11:26:27.832Z,100130.08
2022-08-17T11:29:03.848Z,100135.25
2022-08-17T11:31:44.526Z,100131.60
2022-08-17T11:34:21.776Z,100135.63
2022-08-17T11:37:42.399Z,100133.91
2022-08-17T11:40:38.660Z,100132.23
2022-08-17T11:43:32.914Z,100129.83
2022-08-17T11:46:17.031Z,100127.86
2022-08-17T11:49:25.409Z,100128.41
2022-08-17T11:51:53.343Z,100126.95
2022-08-17T11:54:33.249Z,100112.92
2022-08-17T11:57:27.231Z,100121.55
2022-08-17T12:00:06.874Z,100122.54
2022-08-17T12:02:48.465Z,100123.11
2022-08-17T12:05:25.894Z,100118.89
2022-08-17T12:08:11.808Z,100115.36
2022-08-17T12:10:54.671Z,100114.72
2022-08-17T12:13:44.947Z,100108.06
2022-08-17T12:16:18.220Z,100105.59
2022-08-17T12:18:58.700Z,100102.77
2022-08-17T12:21:40.868Z,100111.92
2022-08-17T12:24:31.465Z,100117.23
2022-08-17T12:27:01.984Z,100108.00
2022-08-17T12:29:35.483Z,100125.02
2022-08-17T12:32:17.603Z,100129.23
2022-08-17T12:34:47.650Z,100126.69
2022-08-17T12:37:31.640Z,100126.58
2022-08-17T12:40:04.916Z,100127.19
2022-08-17T12:42:37.569Z,100125.73
2022-08-17T12:45:24.345Z,100124.36
2022-08-17T12:48:09.282Z,100124.82
2022-08-17T12:50:46.689Z,100115.37
2022-08-17T12:53:17.549Z,100124.38
2022-08-17T12:55:46.409Z,100124.34
2022-08-17T12:58:21.716Z,100126.30
2022-08-17T13:01:00.255Z,100125.20
2022-08-17T13:03:38.837Z,100121.10
2022-08-17T13:06:09.665Z,100118.65
2022-08-17T13:08:47.819Z,100113.07
2022-08-17T13:11:16.835Z,100100.87
2022-08-17T13:14:07.656Z,100108.28
2022-08-17T13:16:36.459Z,100107.01
2022-08-17T13:19:13.048Z,100105.84
2022-08-17T13:21:50.280Z,100106.24
2022-08-17T13:24:25.921Z,100097.66
2022-08-17T13:27:08.272Z,100082.01
2022-08-17T13:29:45.812Z,100091.23
2022-08-17T13:32:31.219Z,100092.65
2022-08-17T13:35:29.638Z,100094.25
2022-08-17T13:38:39.566Z,100098.70
2022-08-17T13:41:08.040Z,100103.51
2022-08-17T13:43:45.863Z,100102.05
2022-08-17T13:46:28.651Z,100104.65
2022-08-17T13:49:07.184Z,100108.06
2022-08-17T13:51:46.954Z,100110.71
2022-08-17T13:54:30.422Z,100111.23
2022-08-17T13:57:00.668Z,100109.02
2022-08-17T13:59:55.011Z,100110.48
2022-08-17T14:02:25.838Z,100113.65
2022-08-17T14:04:58.444Z,100118.20
2022-08-17T14:07:31.429Z,100114.47
2022-08-17T14:10:05.450Z,100113.84
2022-08-17T14:12:36.279Z,100113.88
2022-08-17T14:15:05.061Z,100117.33
2022-08-17T14:17:38.064Z,100115.34
2022-08-17T14:20:12.355Z,100120.11
2022-08-17T14:22:45.055Z,100113.10
2022-08-17T14:25:15.815Z,100113.56
2022-08-17T14:27:52.996Z,100114.03
2022-08-17T14:30:25.361Z,100104.57
2022-08-17T14:32:54.561Z,100110.11
2022-08-17T14:35:24.053Z,100104.77
2022-08-17T14:37:52.801Z,100109.98
2022-08-17T14:40:24.635Z,100108.23
2022-08-17T14:42:55.390Z,100111.70
2022-08-17T14:45:29.881Z,100113.30
2022-08-17T14:48:04.436Z,100114.32
2022-08-17T14:50:35.462Z,100110.20
2022-08-17T14:53:06.065Z,100108.65
2022-08-17T14:55:34.812Z,100106.52
2022-08-17T14:58:04.289Z,100107.42
2022-08-17T15:00:33.032Z,100106.73
2022-08-17T15:03:02.287Z,100108.68
2022-08-17T15:05:34.350Z,100111.19
2022-08-17T15:08:03.868Z,100105.41
2022-08-17T15:10:33.079Z,100108.42
2022-08-17T15:13:01.259Z,100100.59
2022-08-17T15:15:29.836Z,100112.23
2022-08-17T15:17:58.889Z,100106.32
2022-08-17T15:20:29.978Z,100107.80
2022-08-17T15:22:59.646Z,100104.03
2022-08-17T15:25:30.392Z,100106.81
2022-08-17T15:27:59.560Z,100104.86
2022-08-17T15:30:28.680Z,100112.62
2022-08-17T15:32:58.940Z,100107.64
2022-08-17T15:35:32.113Z,100108.88
2022-08-17T15:38:11.779Z,100107.89
2022-08-17T15:40:46.627Z,100107.73
2022-08-17T15:43:27.090Z,100112.23
2022-08-17T15:45:59.866Z,100112.51
2022-08-17T15:48:41.690Z,100110.83
2022-08-17T15:51:28.697Z,100111.17
2022-08-17T15:54:04.598Z,100115.22
2022-08-17T15:56:46.613Z,100108.92
2022-08-17T15:59:14.572Z,100109.34
2022-08-17T16:03:13.528Z,100116.14
2022-08-17T16:04:31.918Z,100117.23
2022-08-17T16:07:00.434Z,100112.80
2022-08-17T16:09:28.703Z,100115.13
2022-08-17T16:11:56.897Z,100102.12
2022-08-17T16:14:33.567Z,100114.57
2022-08-17T16:17:04.994Z,100115.67
2022-08-17T16:19:52.908Z,100115.36
2022-08-17T16:22:37.712Z,100112.23
2022-08-17T16:25:12.576Z,100109.36
2022-08-17T16:27:41.580Z,100104.19
2022-08-17T16:30:15.048Z,100113.38
2022-08-17T16:32:45.455Z,100115.70
2022-08-17T16:35:17.507Z,100118.85
2022-08-17T16:37:45.829Z,100115.90
2022-08-17T16:40:16.150Z,100115.74
2022-08-17T16:42:48.469Z,100117.10
2022-08-17T16:45:19.209Z,100118.23
2022-08-17T16:47:49.160Z,100120.00
2022-08-17T16:50:20.646Z,100120.81
2022-08-17T16:52:50.062Z,100123.86
2022-08-17T16:55:21.160Z,100128.04
2022-08-17T16:57:50.310Z,100128.95
2022-08-17T17:00:21.142Z,100131.17
2022-08-17T17:02:49.782Z,100138.62
2022-08-17T17:05:40.460Z,100133.64
2022-08-17T17:08:31.477Z,100130.06
2022-08-17T17:11:09.753Z,100127.86
2022-08-17T17:13:47.390Z,100130.44
2022-08-17T17:16:31.121Z,100129.27
2022-08-17T17:19:07.873Z,100130.55
2022-08-17T17:22:11.270Z,100134.93
2022-08-17T17:24:51.639Z,100136.16
2022-08-17T17:27:38.251Z,100135.04
2022-08-17T17:30:06.637Z,100137.48
2022-08-17T17:32:43.713Z,100134.52
2022-08-17T17:35:17.831Z,100136.66
2022-08-17T17:37:47.194Z,100158.69
2022-08-17T17:40:40.306Z,100162.02
2022-08-17T17:43:37.261Z,100151.46
2022-08-17T17:46:27.115Z,100171.91
2022-08-17T17:49:00.660Z,100174.71
2022-08-17T17:52:08.765Z,100176.89
2022-08-17T17:54:53.003Z,100177.05
2022-08-17T17:57:44.303Z,100179.95
2022-08-17T18:00:38.925Z,100174.98
2022-08-17T18:03:27.358Z,100185.92
2022-08-17T18:06:00.590Z,100188.73
2022-08-17T18:08:36.680Z,100197.02
2022-08-17T18:11:25.376Z,100198.63
2022-08-17T18:13:59.394Z,100198.84
2022-08-17T18:16:32.975Z,100199.66
2022-08-17T18:19:01.342Z,100202.81
2022-08-17T18:21:38.098Z,100186.05
2022-08-17T18:24:10.894Z,100203.06
2022-08-17T18:26:44.708Z,100204.78
2022-08-17T18:29:31.897Z,100200.14
2022-08-17T18:32:18.923Z,100201.88
2022-08-17T18:34:49.859Z,100201.64
2022-08-17T18:37:33.118Z,100208.06
2022-08-17T18:40:27.255Z,100215.75
2022-08-17T18:43:03.360Z,100216.97
2022-08-17T18:45:51.278Z,100220.27
2022-08-17T18:48:29.960Z,100218.23
2022-08-17T18:51:40.511Z,100217.49
2022-08-17T18:54:14.465Z,100219.58
2022-08-17T18:56:52.755Z,100224.29
2022-08-17T18:59:33.860Z,100228.66
2022-08-17T19:02:22.050Z,100230.26
2022-08-17T19:05:29.452Z,100235.56
2022-08-17T19:08:15.381Z,100237.87
2022-08-17T19:10:47.262Z,100201.20
2022-08-17T19:13:24.457Z,100239.01
2022-08-17T19:16:12.010Z,100236.88
2022-08-17T19:18:49.910Z,100240.92
2022-08-17T19:21:33.867Z,100242.63
2022-08-17T19:24:28.376Z,100243.04
2022-08-17T19:27:14.641Z,100242.77
2022-08-17T19:29:51.731Z,100240.66
2022-08-17T19:32:31.724Z,100243.79
2022-08-17T19:35:01.436Z,100239.48
2022-08-17T19:38:01.016Z,100241.96
2022-08-17T19:40:52.200Z,100244.98
2022-08-17T19:43:21.095Z,100250.29
2022-08-17T19:46:06.151Z,100253.64
2022-08-17T19:48:53.769Z,100258.29
2022-08-17T19:51:36.287Z,100262.02
2022-08-17T19:54:16.191Z,100263.82
2022-08-17T19:57:13.231Z,100265.77
2022-08-17T19:59:50.900Z,100263.02
2022-08-17T20:02:37.682Z,100264.36
2022-08-17T20:05:21.467Z,100265.13
2022-08-17T20:07:58.162Z,100269.29
2022-08-17T20:10:32.455Z,100268.55
2022-08-17T20:13:11.457Z,100268.89
2022-08-17T20:15:43.248Z,100273.94
2022-08-17T20:18:20.067Z,100278.02
2022-08-17T20:21:19.900Z,100282.93
2022-08-17T20:24:17.837Z,100279.63
2022-08-17T20:26:58.183Z,100279.33
2022-08-17T20:29:37.423Z,100282.89
2022-08-17T20:32:18.292Z,100278.45
2022-08-17T20:34:47.773Z,100275.48
2022-08-17T20:37:15.675Z,100271.55
2022-08-17T20:39:43.561Z,100266.27
2022-08-17T20:42:20.765Z,100280.86
2022-08-17T20:44:52.438Z,100292.45
2022-08-17T20:47:26.979Z,100300.51
2022-08-17T20:50:08.791Z,100306.23
2022-08-17T20:52:56.145Z,100312.20
2022-08-17T20:55:52.045Z,100313.69
2022-08-17T20:58:30.049Z,100307.00
2022-08-17T21:01:00.533Z,100308.41
2022-08-17T21:03:40.031Z,100303.69
2022-08-17T21:06:21.463Z,100307.02
2022-08-17T21:09:29.734Z,100304.24
2022-08-17T21:12:05.485Z,100317.60
2022-08-17T21:15:00.264Z,100315.47
2022-08-17T21:17:32.378Z,100317.68
2022-08-17T21:20:11.550Z,100320.02
2022-08-17T21:22:49.096Z,100322.10
2022-08-17T21:25:46.531Z,100324.26
2022-08-17T21:28:36.403Z,100316.38
2022-08-17T21:31:50.847Z,100314.61
2022-08-17T21:34:27.632Z,100320.10
2022-08-17T21:37:16.477Z,100316.30
2022-08-17T21:39:50.711Z,100312.51
2022-08-17T21:42:25.243Z,100310.95
2022-08-17T21:44:58.326Z,100311.96
2022-08-17T21:47:29.531Z,100307.27
2022-08-17T21:50:24.031Z,100308.05
2022-08-17T21:52:54.296Z,100308.67
2022-08-17T21:55:29.653Z,100307.66
2022-08-17T21:58:13.727Z,100305.52
2022-08-17T22:00:45.718Z,100303.20
2022-08-17T22:03:26.235Z,100301.40
2022-08-17T22:05:54.264Z,100302.11
2022-08-17T22:08:26.063Z,100294.95
2022-08-17T22:11:02.059Z,100296.74
2022-08-17T22:13:30.235Z,100291.91
2022-08-17T22:16:15.410Z,100289.27
2022-08-17T22:18:58.219Z,100289.73
2022-08-17T22:21:27.036Z,100290.44
2022-08-17T22:24:05.478Z,100289.02
2022-08-17T22:27:11.385Z,100291.83
2022-08-17T22:29:53.251Z,100289.04
2022-08-17T22:32:42.400Z,100285.10
2022-08-17T22:35:28.947Z,100286.69
2022-08-17T22:37:57.736Z,100279.92
2022-08-17T22:40:34.592Z,100280.20
2022-08-17T22:43:03.857Z,100280.86
2022-08-17T22:45:35.298Z,100277.52
2022-08-17T22:48:03.595Z,100275.21
2022-08-17T22:50:35.747Z,100272.66
2022-08-17T22:53:33.573Z,100275.80
2022-08-17T22:56:20.649Z,100281.52
2022-08-17T22:59:15.107Z,100281.09
2022-08-17T23:01:45.679Z,100275.98
2022-08-17T23:04:32.258Z,100270.73
2022-08-17T23:07:00.871Z,100267.42
2022-08-17T23:09:29.613Z,100262.38
2022-08-17T23:11:58.965Z,100255.80
2022-08-17T23:14:31.842Z,100258.02
2022-08-17T23:17:00.870Z,100261.52
2022-08-17T23:19:31.986Z,100263.13
2022-08-17T23:22:02.891Z,100260.50
2022-08-17T23:24:35.801Z,100258.69
2022-08-17T23:27:07.703Z,100260.74
2022-08-17T23:29:39.581Z,100259.63
2022-08-17T23:32:10.210Z,100262.59
2022-08-17T23:34:40.070Z,100256.45
2022-08-17T23:37:10.457Z,100258.58
2022-08-17T23:39:39.737Z,100255.23
2022-08-17T23:42:11.198Z,100252.76
2022-08-17T23:44:42.165Z,100250.72
2022-08-17T23:47:11.317Z,100249.98
2022-08-17T23:49:41.501Z,100248.05
2022-08-17T23:52:15.004Z,100245.23
2022-08-17T23:54:47.823Z,100244.67
2022-08-17T23:57:19.400Z,100244.81
2022-08-17T23:59:47.394Z,100244.77
